createdAt,value
2019-02-14T00:00:11.845Z,14.20
2019-02-14T00:02:40.641Z,14.30
2019-02-14T00:05:16.187Z,14.50
2019-02-14T00:07:39.929Z,13.47
2019-02-14T00:10:09.658Z,14.10
2019-02-14T00:12:38.547Z,13.43
2019-02-14T00:15:10.270Z,13.00
2019-02-14T00:17:39.224Z,13.00
2019-02-14T00:20:09.971Z,12.57
2019-02-14T00:22:38.908Z,12.27
2019-02-14T00:25:07.646Z,11.70
2019-02-14T00:27:36.507Z,12.53
2019-02-14T00:30:07.259Z,11.10
2019-02-14T00:32:35.968Z,12.37
2019-02-14T00:35:05.910Z,11.43
2019-02-14T00:37:34.791Z,11.27
2019-02-14T00:40:04.457Z,11.57
2019-02-14T00:42:33.236Z,11.43
2019-02-14T00:45:02.039Z,11.80
2019-02-14T00:47:30.851Z,11.40
2019-02-14T00:49:59.729Z,11.40
2019-02-14T00:52:28.474Z,11.10
2019-02-14T00:54:57.164Z,11.13
2019-02-14T00:57:25.882Z,10.77
2019-02-14T00:59:54.529Z,11.53
2019-02-14T01:02:23.324Z,10.67
2019-02-14T01:04:52.079Z,11.07
2019-02-14T01:07:20.869Z,10.77
2019-02-14T01:09:49.825Z,11.53
2019-02-14T01:12:18.486Z,11.70
2019-02-14T01:14:47.195Z,11.23
2019-02-14T01:17:15.911Z,12.23
2019-02-14T01:19:44.785Z,12.70
2019-02-14T01:22:13.594Z,12.50
2019-02-14T01:24:42.394Z,13.40
2019-02-14T01:27:11.119Z,13.87
2019-02-14T01:29:39.855Z,13.67
2019-02-14T01:32:08.663Z,12.77
2019-02-14T01:34:37.464Z,13.50
2019-02-14T01:37:06.142Z,13.57
2019-02-14T01:39:34.824Z,13.83
2019-02-14T01:42:03.651Z,13.23
2019-02-14T01:44:32.355Z,13.47
2019-02-14T01:47:01.139Z,12.97
2019-02-14T01:49:29.937Z,12.53
2019-02-14T01:51:58.827Z,14.07
2019-02-14T01:54:27.451Z,13.70
2019-02-14T01:56:56.326Z,13.83
2019-02-14T01:59:25.310Z,12.87
2019-02-14T02:01:53.961Z,13.77
2019-02-14T02:04:22.798Z,14.50
2019-02-14T02:06:51.517Z,13.80
2019-02-14T02:09:20.337Z,14.37
2019-02-14T02:11:49.085Z,15.13
2019-02-14T02:14:17.878Z,15.83
2019-02-14T02:16:46.570Z,15.57
2019-02-14T02:19:15.525Z,15.17
2019-02-14T02:21:44.334Z,15.83
2019-02-14T02:24:13.065Z,15.20
2019-02-14T02:26:41.817Z,16.03
2019-02-14T02:29:10.536Z,15.87
2019-02-14T02:31:39.332Z,16.73
2019-02-14T02:34:08.190Z,16.30
2019-02-14T02:36:36.877Z,16.40
2019-02-14T02:39:07.771Z,16.27
2019-02-14T02:41:36.638Z,16.23
2019-02-14T02:44:05.360Z,17.67
2019-02-14T02:46:34.143Z,16.90
2019-02-14T02:49:02.866Z,17.37
2019-02-14T02:51:31.743Z,16.13
2019-02-14T02:54:00.460Z,16.50
2019-02-14T02:56:29.229Z,18.27
2019-02-14T02:58:57.887Z,18.50
2019-02-14T03:01:26.655Z,18.13
2019-02-14T03:03:55.470Z,16.27
2019-02-14T03:06:24.228Z,16.67
2019-02-14T03:08:53.134Z,17.87
2019-02-14T03:11:21.851Z,17.63
2019-02-14T03:13:50.611Z,18.00
2019-02-14T03:16:19.436Z,17.13
2019-02-14T03:18:48.322Z,17.17
2019-02-14T03:21:17.045Z,18.17
2019-02-14T03:23:45.946Z,17.10
2019-02-14T03:26:14.616Z,17.40
2019-02-14T03:28:43.209Z,18.10
2019-02-14T03:31:11.848Z,17.57
2019-02-14T03:33:40.607Z,16.97
2019-02-14T03:36:09.407Z,18.53
2019-02-14T03:38:38.204Z,18.50
2019-02-14T03:41:07.061Z,18.80
2019-02-14T03:43:35.860Z,18.87
2019-02-14T03:46:04.676Z,19.73
2019-02-14T03:48:33.323Z,19.33
2019-02-14T03:51:02.081Z,18.43
2019-02-14T03:53:30.763Z,20.60
2019-02-14T03:55:59.543Z,19.83
2019-02-14T03:58:28.273Z,18.93
2019-02-14T04:00:57.062Z,19.97
2019-02-14T04:03:25.918Z,20.17
2019-02-14T04:05:54.690Z,19.30
2019-02-14T04:08:23.426Z,19.77
2019-02-14T04:10:52.181Z,19.90
2019-02-14T04:13:20.890Z,20.87
2019-02-14T04:15:50.117Z,21.07
2019-02-14T04:18:19.116Z,19.03
2019-02-14T04:20:48.027Z,19.43
2019-02-14T04:23:16.747Z,20.30
2019-02-14T04:25:45.518Z,20.40
2019-02-14T04:28:14.466Z,20.50
2019-02-14T04:30:43.229Z,20.27
2019-02-14T04:33:11.959Z,21.10
2019-02-14T04:35:40.708Z,20.27
2019-02-14T04:38:09.398Z,20.97
2019-02-14T04:40:38.098Z,19.80
2019-02-14T04:43:06.876Z,22.10
2019-02-14T04:45:35.663Z,20.93
2019-02-14T04:48:05.362Z,21.17
2019-02-14T04:50:33.976Z,19.83
2019-02-14T04:53:02.643Z,21.13
2019-02-14T04:55:31.408Z,20.50
2019-02-14T04:58:00.188Z,20.30
2019-02-14T05:00:28.957Z,21.77
2019-02-14T05:02:57.767Z,19.77
2019-02-14T05:05:26.475Z,20.10
2019-02-14T05:07:55.150Z,20.63
2019-02-14T05:10:23.901Z,20.03
2019-02-14T05:12:52.746Z,20.57
2019-02-14T05:15:21.569Z,19.70
2019-02-14T05:17:50.382Z,19.97
2019-02-14T05:20:19.020Z,18.90
2019-02-14T05:22:47.789Z,19.50
2019-02-14T05:25:16.529Z,20.13
2019-02-14T05:27:45.346Z,18.60
2019-02-14T05:30:16.593Z,19.90
2019-02-14T05:32:45.332Z,19.67
2019-02-14T05:35:14.104Z,19.07
2019-02-14T05:37:42.770Z,19.07
2019-02-14T05:40:12.129Z,19.47
2019-02-14T05:42:40.939Z,19.47
2019-02-14T05:45:14.354Z,18.73
2019-02-14T05:47:43.265Z,18.63
2019-02-14T05:50:13.441Z,19.77
2019-02-14T05:52:42.257Z,19.17
2019-02-14T05:55:14.119Z,18.47
2019-02-14T05:57:42.847Z,19.07
2019-02-14T06:00:16.972Z,18.40
2019-02-14T06:02:45.926Z,19.07
2019-02-14T06:05:14.681Z,18.50
2019-02-14T06:07:43.521Z,19.57
2019-02-14T06:10:12.701Z,19.17
2019-02-14T06:12:41.454Z,18.67
2019-02-14T06:15:13.900Z,20.00
2019-02-14T06:17:42.767Z,20.13
2019-02-14T06:20:12.292Z,19.47
2019-02-14T06:22:41.062Z,20.07
2019-02-14T06:25:13.871Z,21.10
2019-02-14T06:27:42.568Z,20.20
2019-02-14T06:30:14.618Z,20.23
2019-02-14T06:32:44.098Z,20.13
2019-02-14T06:35:13.704Z,21.17
2019-02-14T06:37:42.464Z,20.93
2019-02-14T06:40:12.879Z,20.60
2019-02-14T06:42:41.592Z,21.23
2019-02-14T06:45:12.997Z,21.53
2019-02-14T06:47:41.741Z,21.43
2019-02-14T06:50:10.666Z,20.87
2019-02-14T06:52:40.484Z,20.73
2019-02-14T06:55:10.487Z,21.70
2019-02-14T06:57:39.255Z,21.93
2019-02-14T07:00:11.064Z,21.67
2019-02-14T07:02:40.023Z,22.00
2019-02-14T07:05:10.233Z,21.77
2019-02-14T07:07:39.182Z,22.37
2019-02-14T07:10:11.703Z,21.57
2019-02-14T07:12:40.456Z,22.10
2019-02-14T07:26:14.169Z,22.50
2019-02-14T07:28:42.969Z,23.63
2019-02-14T07:31:11.749Z,21.23
2019-02-14T07:33:40.719Z,21.77
2019-02-14T07:36:09.526Z,22.53
2019-02-14T07:38:38.333Z,21.30
2019-02-14T07:41:07.117Z,23.00
2019-02-14T07:43:35.693Z,23.43
2019-02-14T07:46:04.715Z,22.30
2019-02-14T07:48:33.527Z,23.93
2019-02-14T07:51:02.810Z,22.97
2019-02-14T07:53:31.665Z,21.73
2019-02-14T07:56:00.602Z,22.53
2019-02-14T07:58:29.383Z,22.50
2019-02-14T08:00:58.017Z,20.53
2019-02-14T08:03:26.907Z,20.97
2019-02-14T08:05:55.781Z,21.80
2019-02-14T08:08:24.591Z,21.50
2019-02-14T08:10:53.356Z,21.43
2019-02-14T08:13:22.272Z,21.63
2019-02-14T08:15:51.137Z,21.20
2019-02-14T08:18:20.324Z,19.67
2019-02-14T08:20:49.086Z,19.17
2019-02-14T08:23:17.854Z,18.70
2019-02-14T08:25:46.773Z,18.87
2019-02-14T08:28:15.640Z,18.77
2019-02-14T08:30:44.550Z,19.00
2019-02-14T08:33:13.574Z,16.33
2019-02-14T08:35:42.366Z,19.13
2019-02-14T08:38:11.374Z,18.53
2019-02-14T08:40:40.209Z,17.63
2019-02-14T08:43:09.104Z,17.57
2019-02-14T08:45:41.483Z,18.23
2019-02-14T08:48:10.636Z,18.03
2019-02-14T08:50:39.584Z,18.87
2019-02-14T08:53:08.405Z,18.77
2019-02-14T08:55:37.370Z,18.63
2019-02-14T08:58:06.266Z,19.07
2019-02-14T09:00:35.251Z,17.30
2019-02-14T09:03:04.171Z,18.27
2019-02-14T09:05:33.084Z,18.23
2019-02-14T09:08:01.976Z,17.87
2019-02-14T09:10:31.029Z,16.73
2019-02-14T09:13:00.018Z,16.53
2019-02-14T09:15:28.918Z,16.93
2019-02-14T09:17:57.887Z,16.03
2019-02-14T09:20:26.670Z,15.23
2019-02-14T09:22:55.568Z,15.33
2019-02-14T09:25:24.492Z,15.70
2019-02-14T09:27:53.463Z,14.80
2019-02-14T09:30:22.428Z,15.00
2019-02-14T09:32:51.446Z,14.67
2019-02-14T09:35:20.334Z,15.77
2019-02-14T09:37:49.210Z,16.10
2019-02-14T09:40:18.705Z,15.63
2019-02-14T09:42:47.693Z,15.13
2019-02-14T09:45:16.694Z,14.80
2019-02-14T09:47:45.788Z,16.30
2019-02-14T09:50:15.582Z,16.03
2019-02-14T09:52:44.548Z,15.60
2019-02-14T09:55:14.383Z,15.57
2019-02-14T09:57:43.460Z,16.87
2019-02-14T10:00:15.341Z,15.93
2019-02-14T10:02:47.551Z,16.83
2019-02-14T10:05:16.891Z,15.50
2019-02-14T10:07:46.148Z,16.93
2019-02-14T10:10:23.293Z,15.57
2019-02-14T10:12:52.198Z,16.07
2019-02-14T10:15:21.184Z,15.97
2019-02-14T10:17:50.231Z,16.37
2019-02-14T10:20:19.401Z,16.73
2019-02-14T10:22:48.319Z,17.30
2019-02-14T10:25:17.218Z,17.47
2019-02-14T10:27:46.096Z,16.93
2019-02-14T10:30:20.120Z,17.43
2019-02-14T10:32:50.071Z,17.20
2019-02-14T10:35:18.952Z,17.63
2019-02-14T10:37:47.856Z,17.33
2019-02-14T10:40:17.349Z,16.27
2019-02-14T10:42:46.186Z,16.27
2019-02-14T10:45:19.452Z,16.63
2019-02-14T10:47:48.109Z,16.50
2019-02-14T10:50:16.913Z,15.37
2019-02-14T10:52:45.666Z,15.87
2019-02-14T12:01:12.669Z,16.73
2019-02-14T12:03:41.600Z,16.30
2019-02-14T12:06:10.611Z,16.50
2019-02-14T12:08:50.063Z,16.47
2019-02-14T12:11:10.212Z,16.23
2019-02-14T12:13:39.649Z,15.60
2019-02-14T12:16:08.824Z,14.80
2019-02-14T12:18:37.646Z,15.13
2019-02-14T12:21:06.411Z,15.47
2019-02-14T12:23:35.287Z,15.93
2019-02-14T12:26:05.695Z,15.03
2019-02-14T12:28:34.364Z,17.10
2019-02-14T12:31:03.197Z,15.73
2019-02-14T12:33:31.872Z,16.80
2019-02-14T12:36:00.530Z,15.40
2019-02-14T12:38:29.463Z,15.67
2019-02-14T12:40:58.252Z,15.70
2019-02-14T12:43:27.207Z,15.40
2019-02-14T12:45:56.173Z,14.13
2019-02-14T12:48:24.990Z,15.53
2019-02-14T12:50:53.764Z,15.70
2019-02-14T12:53:22.717Z,15.10
2019-02-14T12:55:53.191Z,14.47
2019-02-14T12:58:22.137Z,14.90
2019-02-14T13:00:50.887Z,15.63
2019-02-14T13:03:19.587Z,16.57
2019-02-14T13:05:48.203Z,16.90
2019-02-14T13:08:16.963Z,16.97
2019-02-14T13:10:45.850Z,16.87
2019-02-14T13:13:14.934Z,18.57
2019-02-14T13:15:43.863Z,19.93
2019-02-14T13:18:12.552Z,21.13
2019-02-14T13:20:41.282Z,19.13
2019-02-14T13:23:10.016Z,18.67
2019-02-14T13:25:38.758Z,18.60
2019-02-14T13:28:07.506Z,17.73
2019-02-14T13:30:36.326Z,18.67
2019-02-14T13:33:05.185Z,19.20
2019-02-14T13:35:33.915Z,19.53
2019-02-14T13:49:50.746Z,22.80
2019-02-14T13:52:19.833Z,22.47
2019-02-14T13:54:49.079Z,22.93
2019-02-14T13:57:18.003Z,22.27
2019-02-14T13:59:46.941Z,22.27
2019-02-14T14:02:16.022Z,23.10
2019-02-14T14:04:44.933Z,23.67
2019-02-14T14:07:13.849Z,22.60
2019-02-14T14:09:42.559Z,23.33
2019-02-14T14:12:11.768Z,23.93
2019-02-14T14:14:40.684Z,24.47
2019-02-14T14:17:09.517Z,23.73
2019-02-14T14:19:38.271Z,22.50
2019-02-14T14:22:07.348Z,22.50
2019-02-14T14:24:36.024Z,22.30
2019-02-14T14:27:04.971Z,22.63
2019-02-14T14:29:34.695Z,23.33
2019-02-14T14:32:03.440Z,23.47
2019-02-14T14:34:32.238Z,23.63
2019-02-14T14:37:01.077Z,23.07
2019-02-14T14:39:29.998Z,22.03
2019-02-14T14:41:58.959Z,21.90
2019-02-14T14:44:29.780Z,24.63
2019-02-14T14:46:58.659Z,20.93
2019-02-14T14:49:28.020Z,20.90
2019-02-14T14:51:57.834Z,21.97
2019-02-14T14:54:26.610Z,21.03
2019-02-14T14:56:55.556Z,20.90
2019-02-14T14:59:24.448Z,21.43
2019-02-14T15:01:53.429Z,20.63
2019-02-14T15:04:22.320Z,21.73
2019-02-14T15:06:51.387Z,20.90
2019-02-14T15:09:20.159Z,20.00
2019-02-14T15:11:48.992Z,19.93
2019-02-14T15:14:17.720Z,21.27
2019-02-14T15:16:46.469Z,20.77
2019-02-14T15:19:15.266Z,20.23
2019-02-14T15:21:44.054Z,19.63
2019-02-14T15:24:12.744Z,18.70
2019-02-14T15:26:41.428Z,19.93
2019-02-14T15:29:10.327Z,20.13
2019-02-14T15:31:39.388Z,22.57
2019-02-14T15:34:08.061Z,20.10
2019-02-14T15:36:37.141Z,20.63
2019-02-14T15:39:07.000Z,19.80
2019-02-14T15:41:35.919Z,18.97
2019-02-14T15:44:04.735Z,18.33
2019-02-14T15:46:33.394Z,17.47
2019-02-14T15:49:23.145Z,19.03
2019-02-14T15:51:52.342Z,19.47
2019-02-14T15:54:21.270Z,18.33
2019-02-14T15:56:51.423Z,17.57
2019-02-14T15:59:21.044Z,16.50
2019-02-14T16:01:50.044Z,18.17
2019-02-14T16:04:18.892Z,18.13
2019-02-14T16:06:47.702Z,17.47
2019-02-14T16:09:16.703Z,18.10
2019-02-14T16:11:45.963Z,16.97
2019-02-14T16:14:16.354Z,17.03
2019-02-14T16:16:45.784Z,16.80
2019-02-14T16:19:15.658Z,17.40
2019-02-14T16:21:44.501Z,16.87
2019-02-14T16:24:14.347Z,17.60
2019-02-14T16:26:43.872Z,17.27
2019-02-14T16:29:12.577Z,18.83
2019-02-14T16:31:41.289Z,18.50
2019-02-14T16:34:10.239Z,18.83
2019-02-14T16:36:39.050Z,17.07
2019-02-14T16:39:07.772Z,17.27
2019-02-14T16:41:36.591Z,20.60
2019-02-14T16:44:05.458Z,19.57
2019-02-14T16:46:34.351Z,20.33
2019-02-14T16:49:03.318Z,20.63
2019-02-14T16:51:32.096Z,21.37
2019-02-14T16:54:00.909Z,22.10
2019-02-14T16:56:29.747Z,22.57
2019-02-14T16:58:58.385Z,23.30
2019-02-14T17:01:27.266Z,23.63
2019-02-14T17:03:56.102Z,23.63
2019-02-14T17:06:24.773Z,23.73
2019-02-14T17:08:53.566Z,23.50
2019-02-14T17:11:22.459Z,24.27
2019-02-14T17:13:51.256Z,24.37
2019-02-14T17:16:19.957Z,24.20
2019-02-14T17:18:48.811Z,24.70
2019-02-14T17:21:17.566Z,25.87
2019-02-14T17:23:46.488Z,27.63
2019-02-14T17:26:15.336Z,29.20
2019-02-14T17:28:44.109Z,29.90
2019-02-14T17:31:12.847Z,31.13
2019-02-14T17:33:41.720Z,33.27
2019-02-14T17:36:10.454Z,31.93
2019-02-14T17:38:39.193Z,32.53
2019-02-14T17:41:08.116Z,31.33
2019-02-14T17:43:36.845Z,33.43
2019-02-14T17:46:05.490Z,32.87
2019-02-14T17:48:34.213Z,31.97
2019-02-14T17:51:02.993Z,29.87
2019-02-14T17:53:31.618Z,29.93
2019-02-14T17:56:00.500Z,29.97
2019-02-14T17:58:29.258Z,28.90
2019-02-14T18:00:58.110Z,31.73
2019-02-14T18:03:27.033Z,31.80
2019-02-14T18:05:55.803Z,31.67
2019-02-14T18:08:24.558Z,33.47
2019-02-14T18:10:55.204Z,34.63
2019-02-14T18:13:23.800Z,35.60
2019-02-14T18:15:52.491Z,39.20
2019-02-14T18:18:21.376Z,37.67
2019-02-14T18:20:50.145Z,36.57
2019-02-14T18:23:18.899Z,35.43
2019-02-14T18:25:47.635Z,35.00
2019-02-14T18:28:16.380Z,36.87
2019-02-14T18:30:45.071Z,37.63
2019-02-14T18:33:13.795Z,38.67
2019-02-14T18:35:42.468Z,38.97
2019-02-14T18:38:11.252Z,38.90
2019-02-14T18:40:40.033Z,40.30
2019-02-14T18:43:08.794Z,45.10
2019-02-14T18:45:37.551Z,47.00
2019-02-14T18:48:06.753Z,46.77
2019-02-14T18:50:35.554Z,44.60
2019-02-14T18:53:04.464Z,46.47
2019-02-14T18:55:33.356Z,45.53
2019-02-14T18:58:02.145Z,44.57
2019-02-14T19:00:30.963Z,40.43
2019-02-14T19:02:59.779Z,41.27
2019-02-14T19:05:28.513Z,40.40
2019-02-14T19:07:57.626Z,38.33
2019-02-14T19:10:26.389Z,39.80
2019-02-14T19:12:56.700Z,39.40
2019-02-14T19:15:25.446Z,39.13
2019-02-14T19:17:54.275Z,38.53
2019-02-14T19:20:23.161Z,40.27
2019-02-14T19:22:51.935Z,42.63
2019-02-14T19:25:20.965Z,46.40
2019-02-14T19:27:49.859Z,49.57
2019-02-14T19:30:18.754Z,49.77
2019-02-14T19:32:47.504Z,53.20
2019-02-14T19:35:22.742Z,61.03
2019-02-14T19:37:46.570Z,55.60
2019-02-14T19:40:15.464Z,52.70
2019-02-14T19:42:44.459Z,48.93
2019-02-14T19:45:13.603Z,46.83
2019-02-14T19:47:42.531Z,44.20
2019-02-14T19:50:12.864Z,50.00
2019-02-14T19:52:41.808Z,44.33
2019-02-14T19:55:10.652Z,42.10
2019-02-14T19:57:39.401Z,40.33
2019-02-14T20:00:11.047Z,39.93
2019-02-14T20:02:39.951Z,34.83
2019-02-14T20:05:09.806Z,37.33
2019-02-14T20:07:39.102Z,38.37
2019-02-14T20:10:10.889Z,38.33
2019-02-14T20:12:39.658Z,37.00
2019-02-14T20:15:14.003Z,36.17
2019-02-14T20:17:42.885Z,37.00
2019-02-14T20:20:11.690Z,36.63
2019-02-14T20:22:40.477Z,35.50
2019-02-14T20:25:15.105Z,37.93
2019-02-14T20:27:43.865Z,36.33
2019-02-14T20:30:13.216Z,37.80
2019-02-14T20:32:42.099Z,37.20
2019-02-14T20:35:10.930Z,37.20
2019-02-14T20:37:39.826Z,37.20
2019-02-14T20:40:10.533Z,36.13
2019-02-14T20:42:39.277Z,36.63
2019-02-14T20:45:11.494Z,36.07
2019-02-14T20:47:40.458Z,37.07
2019-02-14T20:50:11.778Z,36.20
2019-02-14T20:52:40.526Z,36.80
2019-02-14T20:55:23.603Z,36.87
2019-02-14T20:57:52.381Z,36.83
2019-02-14T21:00:35.327Z,36.80
2019-02-14T21:03:04.491Z,36.67
2019-02-14T21:05:33.318Z,34.33
2019-02-14T21:08:02.075Z,37.70
2019-02-14T21:10:31.931Z,38.87
2019-02-14T21:13:01.037Z,40.97
2019-02-14T21:15:29.866Z,41.00
2019-02-14T21:17:58.701Z,39.30
2019-02-14T21:20:27.635Z,39.63
2019-02-14T21:22:56.436Z,38.67
2019-02-14T21:25:25.183Z,39.00
2019-02-14T21:27:53.982Z,38.63
2019-02-14T21:30:22.802Z,37.13
2019-02-14T21:32:51.583Z,40.97
2019-02-14T21:35:20.326Z,41.00
2019-02-14T21:37:49.219Z,43.10
2019-02-14T21:40:19.351Z,41.63
2019-02-14T21:42:48.048Z,42.03
2019-02-14T21:45:17.670Z,42.67
2019-02-14T21:47:46.472Z,41.53
2019-02-14T21:50:16.065Z,40.97
2019-02-14T21:52:44.954Z,42.37
2019-02-14T21:55:14.459Z,40.93
2019-02-14T21:57:43.399Z,40.10
2019-02-14T22:00:23.730Z,39.27
2019-02-14T22:02:52.504Z,39.47
2019-02-14T22:05:25.063Z,40.83
2019-02-14T22:07:52.038Z,47.20
2019-02-14T22:10:20.730Z,47.13
2019-02-14T22:12:49.412Z,43.27
2019-02-14T22:15:25.110Z,41.37
2019-02-14T22:17:54.794Z,41.00
2019-02-14T22:20:24.257Z,42.10
2019-02-14T22:22:54.561Z,41.50
2019-02-14T22:25:23.260Z,44.10
2019-02-14T22:27:52.008Z,44.23
2019-02-14T22:30:20.842Z,43.60
2019-02-14T22:32:49.608Z,43.70
2019-02-14T22:35:18.317Z,45.70
2019-02-14T22:37:47.150Z,47.00
2019-02-14T22:40:15.796Z,46.47
2019-02-14T22:42:47.534Z,45.80
2019-02-14T22:45:15.763Z,44.97
2019-02-14T22:47:47.466Z,45.73
2019-02-14T22:50:16.133Z,43.17
2019-02-14T22:52:45.126Z,43.77
2019-02-14T22:55:15.898Z,43.13
2019-02-14T22:57:44.731Z,43.83
2019-02-14T23:00:33.169Z,44.00
2019-02-14T23:03:01.963Z,45.30
2019-02-14T23:05:30.788Z,46.30
2019-02-14T23:07:59.753Z,46.37
2019-02-14T23:10:28.498Z,46.33
2019-02-14T23:12:57.526Z,46.10
2019-02-14T23:15:26.322Z,46.60
2019-02-14T23:17:55.066Z,47.33
2019-02-14T23:20:23.892Z,45.93
2019-02-14T23:22:52.649Z,45.23
2019-02-14T23:25:21.436Z,45.40
2019-02-14T23:27:50.235Z,46.63
2019-02-14T23:30:19.151Z,47.30
2019-02-14T23:32:47.916Z,45.23
2019-02-14T23:35:16.803Z,43.93
2019-02-14T23:37:45.574Z,45.10
2019-02-14T23:40:14.321Z,45.43
2019-02-14T23:42:43.025Z,44.63
2019-02-14T23:45:11.860Z,43.47
2019-02-14T23:47:40.605Z,45.00
2019-02-14T23:50:10.864Z,44.40
2019-02-14T23:52:39.657Z,45.13
2019-02-14T23:55:09.306Z,45.73
2019-02-14T23:57:37.967Z,46.90
